PEAK 2 PEAK MOUNTAIN BIKE RACE
OCTOBER 15, 2011
TIMING BY RACE SERVICES COMPANY
www.RaceServices.com

ELITE/EXPERT RESULTS

PEAK2PEAK CLASSIC


PRO/ELITE MEN

Place No. Name Sponsor/team Lap1 Lap2 Lap3 Time
1 57 Cole House 38:51 40:47 40:44 2:00:20
2 151 Nathan Guerra Wheel & Sprocket / Vision 38:51 40:50 40:41 2:00:22
3 156 Christian Tanguy Team Cf 38:53 40:52 40:43 2:00:27
4 1 Mike Anderson Trek/sram 38:50 40:51 40:58 2:00:38
5 130 Alexander Vanias 39:00 40:52 40:52 2:00:43
6 135 Jorden Wakeley Einstein 38:53 40:52 41:21 2:01:04
7 44 Derek Graham Bissell 39:12 40:47 41:08 2:01:06
8 30 Jeff Craven 40:20 40:52 42:10 2:03:21
9 110 Ty Schmidt Einstein 40:25 40:53 42:42 2:04:00
10 140 Michael Wissink Specialized 40:27 41:16 42:26 2:04:07
11 116 Michael Simonson 41:43 42:32 43:28 2:07:42
12 75 Dan Korienek Leadout 41:18 43:00 43:45 2:08:02
13 78 Greg Kuhn 41:05 42:49 44:42 2:08:35
14 122 Jason Stephenson 41:44 42:47 46:07 2:10:36
15 24 Ron Catlin 41:05 42:51 48:07 2:12:02
16 132 Armando Vega Mpimainstreetkuhnnehn 45:08 43:33 43:49 2:12:29
17 42 Bill Gallagher 43:09 44:39 44:47 2:12:34
18 31 Shawn Davison Farmteam 41:44 44:11 47:09 2:13:04
19 579 Scott Quiring Quiring Cycles Llc 42:54 46:30 49:10 2:18:34
20 72 Dan Klein 41:45 43:54 53:57 2:19:35
21 29 John Cowan 40:27 44:32
22 121 Kyle Stange Cyclefit 42:08 45:48
23 159 Chad Wells North Country Cycle Sport 42:26
PEAK2PEAK CLASSIC


PRO/ELITE WOMEN

Place No. Name Sponsor/team Lap1 Lap2 Lap3 Time
1 143 Mackenzie Woodring 45:19 46:29 49:03 2:20:50
2 109 Johanna Schmidt Einstein 45:38 47:22 48:35 2:21:35
3 2 Susan Stephens Quiring Cycles 45:16 46:32 50:45 2:22:32
4 134 Susan Vigland 46:15 49:54 51:04 2:27:12
5 133 Erin Vicary 47:45 50:57 51:53 2:30:34
6 41 Jamie Galambos Mishka 48:59 49:59 52:47 2:31:45
PEAK2PEAK CLASSIC


EXPERT WOMEN

Place No. Name Sponsor/team Lap1 Lap2 Lap3 Time
1 27 Karey Collins Mpimainstreet 51:04 53:17 52:45 2:37:05
2 69 Marilyn Kamp 51:20 52:55 53:39 2:37:53
3 17 Heather Brewer Wmcr 53:04 56:51 57:20 2:47:15
4 311 Zandra Hudson 52:55 57:16 57:32 2:47:41
5 89 Tammy Moran 55:15 59:35 1:01:38 2:56:27
6 43 Jill Gorkowski Fusion 56:04 57:54 1:02:49 2:56:47
7 84 Bobbie Liegl Latitude45 55:14 1:00:08 1:01:42 2:57:03
8 95 Kimberly Owens 53:55 1:01:34 1:01:43 2:57:11
9 58 Michelle Howard 56:05 59:41 1:01:27 2:57:11
10 104 Zoe Reeves 56:44 1:04:05
PEAK2PEAK CLASSIC


EXPERT MEN 18-29

Place No. Name Sponsor/team Lap1 Lap2 Lap3 Time
1 118 Wes Sovis 44:31 46:29 48:15 2:19:13
2 94 Michael Okma Hagerty 46:03 48:30 52:20 2:26:52
3 11 Brendan Benson 44:14 47:37 56:11 2:28:00
4 117 Cody Sovis 46:46 50:21 53:31 2:30:37
5 32 Nick Demek 48:00 52:06 57:05 2:37:10
6 335 Tyler Kelly Brick Wheels 49:26 58:06 56:58 2:44:29
7 127 Logan Taylor 49:24 50:15 1:05:55 2:45:34
8 92 Alexander Nixon Oh Yea 56:39 1:04:03 1:20:01 3:20:42
9 12 Evan Boese 45:34 52:50
PEAK2PEAK CLASSIC


EXPERT MEN 30-39

Place No. Name Sponsor/team Lap1 Lap2 Lap3 Time
1 99 Jamie Parker Specialized 43:18 43:39 45:47 2:12:43
2 25 Jay Click 43:21 44:53 45:09 2:13:22
3 90 Adam Naish 43:22 44:52 45:17 2:13:30
4 50 Don Hackney 43:39 45:53 46:08 2:15:38
5 149 Aaron Zuelke 44:13 44:50 46:55 2:15:56
6 79 Chris Kushman 43:58 45:44 46:56 2:16:37
7 14 Jim Bonnell 44:19 45:26 47:11 2:16:55
8 87 Joshua McCreedy 43:20 45:13 50:39 2:19:11
9 52 Brian Harris Cross Country Cycle 44:26 46:09 50:14 2:20:48
10 86 Chris Maltby 45:10 46:33 49:29 2:21:11
11 142 Derek Witte 45:21 47:41 48:47 2:21:48
12 111 Steve Schultz Twistedstone 45:26 48:10 51:00 2:24:35
13 20 Andrew Brown 46:11 49:05 52:08 2:27:23
14 39 Todd Freidinger 46:25 49:15 53:50 2:29:29
15 46 Eric Grassa 47:31 51:04 56:57 2:35:32
16 137 Adam Webb 48:47 54:07 57:55 2:40:48
17 55 Matthew Hoffman 53:52 55:50 53:36 2:43:16
18 91 Paul Nederveld Fusionit 44:38 51:44 1:08:34 2:44:54
19 60 Yarro Ireland Leonhandcraftedspeakers 51:06 54:54 59:41 2:45:40
20 3 Ryan Allen 53:11 59:03 1:01:27 2:53:39
21 691 Dan McGraw Freewheeler 46:05 50:04
22 120 Nate St. Onge Einstein Racing 47:23 54:28
PEAK2PEAK CLASSIC


EXPERT MEN 40-49

Place No. Name Sponsor/team Lap1 Lap2 Lap3 Time
1 141 Jeff Wittbrodt 42:33 43:53 44:17 2:10:43
2 152 Jimmi McMurray East Hills Velo 43:21 44:47 46:29 2:14:36
3 23 Dale Carley Fusion It 43:38 45:27 46:14 2:15:18
4 114 Rob Selle 43:58 45:44 46:56 2:16:37
5 54 David Hietikko 42:33 44:24 49:46 2:16:42
6 28 Timothy Collins Mpimainstreet 44:12 45:30 47:16 2:16:58
7 138 Tom White 43:14 44:58 49:06 2:17:17
8 49 Anthony Gwin Mvw 44:42 46:28 47:09 2:18:17
9 157 Michael Seaman Specialized 45:23 46:28 47:51 2:19:42
10 85 Jarod Makowski 44:13 45:37 50:15 2:20:04
11 51 Chris Hansen 43:32 46:13 51:03 2:20:48
12 113 Tom Scott 44:27 47:43 50:09 2:22:18
13 158 Jon Bennett Team Mongo 46:25 47:12 49:04 2:22:41
14 101 Scott Pruski 45:54 47:55 49:00 2:22:48
15 9 Tim Barrons 46:21 47:48 50:23 2:24:31
16 21 David Bucholtz Einstein Racing 46:35 48:30 50:22 2:25:26
17 107 Steve Haakenson 47:14 47:22 50:59 2:25:34
18 37 Eric Fernando 45:28 48:09 52:04 2:25:40
19 119 Mark Spore 45:54 48:16 51:51 2:26:00
20 62 Tim Jenema 45:18 47:25 54:01 2:26:43
21 515 Dave Van Laecke 47:14 49:44 53:29 2:30:26
22 153 Douglas Wise Proform Racing, South Bend Indiana 47:47 49:47 53:27 2:31:00
23 83 Jim Leikert 47:40 51:13 53:39 2:32:31
24 447 Douglas Reed, Jr 49:04 51:31 51:59 2:32:33
25 155 Mike Senters Lisa,luke,gabby 46:34 48:27 57:35 2:32:34
26 16 Mark Bourgeau 49:38 51:52 53:26 2:34:55
27 66 David Johnson 48:24 51:59 54:44 2:35:06
28 136 Richard Watson Fusioncycling 47:20 52:59 55:30 2:35:47
29 100 Fabrice Portes Wsc 48:24 52:34 55:23 2:36:20
30 10 Eric Bartels 48:17 52:02 57:26 2:37:44
31 144 Peter Worden Hagerty Cycling 47:32 52:53 57:57 2:38:21
32 67 Mike Jones 50:51 54:08 55:40 2:40:38
33 93 Timothy O'Brien 50:36 56:16 54:03 2:40:54
34 19 Eric Broekhuis 51:48 54:49 56:28 2:43:04
35 124 Aaron Swanker 51:06 55:18 57:13 2:43:37
36 162 Scott Adema Racinggreyhounds 50:58 53:22 1:00:36 2:44:55
37 102 Ulises Rabeiro Twisted Stone/latitude 45 52:18 55:31 59:03 2:46:52
38 147 Nick Yetter 51:02 56:03 1:00:09 2:47:13
39 126 James Taylor 51:47 56:03 1:00:03 2:47:51
40 310 Rob Mitzel 51:29 57:14 59:48 2:48:29
41 45 Rob Grainger 51:55 56:33 1:01:00 2:49:28
42 81 Stephen Lagerquist 49:52 54:19 1:07:33 2:51:43
43 64 Dennis Jensen 53:32 57:13 1:10:55 3:01:39
44 148 Jeffrey Zeller Outpost/quiringcycles 44:39
PEAK2PEAK CLASSIC


EXPERT MEN 50+

Place No. Name Sponsor/team Lap1 Lap2 Lap3 Time
1 56 Daniel Hofstra Hagerty 44:11 43:48 44:38 2:12:37
2 71 Clark Kent 45:36 46:57 47:48 2:20:20
3 36 Donald Fedrigon Jr. Hagerty 46:01 46:32 47:57 2:20:29
4 26 David Coar 45:37 46:58 48:37 2:21:10
5 34 Jeff Doerr 45:58 47:40 49:56 2:23:33
6 35 Jeff Faber 45:55 47:04 51:18 2:24:17
7 125 Clete Swanson 45:56 48:45 50:01 2:24:41
8 73 Jack Kline 46:33 49:22 48:55 2:24:49
9 74 Raymond Dybowski Wolverine/acfstores.Com 48:42 49:26 50:11 2:28:18
10 88 Kip Miller 47:40 50:55 51:15 2:29:49
11 13 Mark Boese 47:44 50:05 52:16 2:30:03
12 160 Karl Rossman Roll Model 48:43 52:41 52:17 2:33:39
13 98 Geoffrey Paine 49:09 51:51 54:09 2:35:08
14 47 Kevin Grochowalski 50:17 53:29 54:36 2:38:21
15 700 Don Camp Wmcr 50:54 53:27 54:04 2:38:24
16 129 Lewis Tripp 49:16 54:37 55:39 2:39:31
17 112 Jeff Scofield Rapid Wheelmen 51:33 53:32 55:59 2:41:03
18 77 John Kowalczyk Rapidwheelmen 51:36 53:28 57:47 2:42:50
19 145 Gregory Worsnop Kalamazoonordic 54:34 57:04 1:05:05 2:56:42
20 6 Steve Baars Rapidwheelmen 55:16 1:00:15 1:07:13 3:02:43
21 59 Dennis Howell 55:45 59:47 1:11:45 3:07:17
PEAK2PEAK CLASSIC


EXPERT SINGLE SPEED

Place No. Name Sponsor/team Lap1 Lap2 Lap3 Time
1 108 Ron Sanborn Einsteinracing 42:35 44:05 45:26 2:12:04
2 5 Stephen Andriese 43:16 43:40 45:18 2:12:14
3 106 Don Roth 43:18 43:58 48:51 2:16:05
4 8 Patrick Barrett 45:35 47:59 49:27 2:23:00
5 161 Matt Acker 45:57 48:57 51:08 2:26:01
6 96 Dan Packer Citybikeshop 47:24 49:11 50:19 2:26:53
7 65 Bradley Jerris 48:35 50:00 50:46 2:29:20
8 131 Barry Vanvolkinburg 47:00 49:56 54:17 2:31:12
9 7 Will Baker 57:35 47:23 49:36 2:34:34
10 48 Peter Gurney 51:43 54:54 56:21 2:42:57
11 128 David Tietz 49:52 55:14 58:43 2:43:48